createdAt,value
2019-03-31T00:00:03.921Z,65.71
2019-03-31T00:00:38.890Z,65.63
2019-03-31T00:01:10.796Z,65.67
2019-03-31T00:01:43.846Z,65.45
2019-03-31T00:02:16.940Z,65.62
2019-03-31T00:02:48.138Z,65.57
2019-03-31T00:03:19.346Z,65.71
2019-03-31T00:03:50.468Z,65.71
2019-03-31T00:04:21.675Z,65.75
2019-03-31T00:04:52.896Z,65.72
2019-03-31T00:05:24.112Z,65.78
2019-03-31T00:05:55.281Z,65.94
2019-03-31T00:06:26.499Z,65.80
2019-03-31T00:06:57.652Z,65.86
2019-03-31T00:07:28.938Z,65.96
2019-03-31T00:08:00.169Z,65.94
2019-03-31T00:08:31.363Z,66.05
2019-03-31T00:09:05.243Z,66.13
2019-03-31T00:09:36.523Z,66.21
2019-03-31T00:10:07.687Z,66.21
2019-03-31T00:10:38.868Z,66.33
2019-03-31T00:11:10.026Z,66.37
2019-03-31T00:11:41.169Z,66.43
2019-03-31T00:12:12.335Z,66.41
2019-03-31T00:12:44.506Z,66.38
2019-03-31T00:13:15.651Z,66.50
2019-03-31T00:13:46.813Z,66.49
2019-03-31T00:14:17.977Z,66.53
2019-03-31T00:14:49.166Z,66.52
2019-03-31T00:15:20.350Z,66.56
2019-03-31T00:15:51.487Z,66.46
2019-03-31T00:16:22.729Z,66.56
2019-03-31T00:16:53.953Z,66.48
2019-03-31T00:17:26.107Z,66.50
2019-03-31T00:17:57.262Z,66.49
2019-03-31T00:18:28.572Z,66.42
2019-03-31T00:18:59.729Z,66.31
2019-03-31T00:19:30.885Z,66.39
2019-03-31T00:20:03.917Z,66.39
2019-03-31T00:20:35.096Z,66.47
2019-03-31T00:21:06.252Z,66.49
2019-03-31T00:21:38.952Z,66.52
2019-03-31T00:22:10.115Z,66.51
2019-03-31T00:22:41.334Z,66.44
2019-03-31T00:23:12.488Z,66.51
2019-03-31T00:23:43.694Z,66.53
2019-03-31T00:24:14.841Z,66.47
2019-03-31T00:24:46.083Z,66.55
2019-03-31T00:25:17.275Z,66.63
2019-03-31T00:25:48.592Z,66.71
2019-03-31T00:26:19.746Z,66.74
2019-03-31T00:26:50.961Z,66.73
2019-03-31T00:27:22.129Z,66.80
2019-03-31T00:27:53.349Z,66.75
2019-03-31T00:28:24.511Z,66.69
2019-03-31T00:28:55.711Z,66.64
2019-03-31T00:29:26.872Z,66.65
2019-03-31T00:29:58.068Z,66.72
2019-03-31T00:30:29.235Z,66.74
2019-03-31T00:31:00.414Z,66.73
2019-03-31T00:31:31.583Z,66.68
2019-03-31T00:32:02.880Z,66.60
2019-03-31T00:32:34.055Z,66.68
2019-03-31T00:33:05.222Z,66.67
2019-03-31T00:33:36.395Z,66.67
2019-03-31T00:34:07.581Z,66.52
2019-03-31T00:34:38.753Z,66.51
2019-03-31T00:35:09.937Z,66.41
2019-03-31T00:35:41.121Z,66.36
2019-03-31T00:36:12.293Z,66.33
2019-03-31T00:36:43.477Z,66.31
2019-03-31T00:37:14.660Z,66.34
2019-03-31T00:37:45.833Z,66.41
2019-03-31T00:38:17.041Z,66.45
2019-03-31T00:38:48.243Z,66.47
2019-03-31T00:39:19.416Z,66.42
2019-03-31T00:39:50.594Z,66.54
2019-03-31T00:40:21.767Z,66.56
2019-03-31T00:40:52.968Z,66.54
2019-03-31T00:41:24.135Z,66.57
2019-03-31T00:41:55.627Z,66.64
2019-03-31T00:42:26.798Z,66.69
2019-03-31T00:42:58.030Z,66.56
2019-03-31T00:43:29.197Z,66.65
2019-03-31T00:44:00.394Z,66.71
2019-03-31T00:44:31.546Z,66.75
2019-03-31T00:45:05.456Z,66.83
2019-03-31T00:45:36.631Z,66.89
2019-03-31T00:46:07.840Z,66.87
2019-03-31T00:46:39.012Z,66.90
2019-03-31T00:47:10.218Z,66.95
2019-03-31T00:47:41.378Z,66.88
2019-03-31T00:48:12.602Z,66.96
2019-03-31T00:48:43.841Z,66.85
2019-03-31T00:49:15.076Z,66.92
2019-03-31T00:49:46.252Z,66.79
2019-03-31T00:50:17.447Z,66.82
2019-03-31T00:50:48.653Z,66.89
2019-03-31T00:51:19.820Z,66.76
2019-03-31T00:51:51.000Z,66.78
2019-03-31T00:52:22.208Z,66.79
2019-03-31T00:52:53.392Z,66.84
2019-03-31T00:53:24.581Z,66.97
2019-03-31T00:53:55.757Z,66.95
2019-03-31T00:54:27.839Z,66.98
2019-03-31T00:54:59.219Z,67.00
2019-03-31T00:55:30.394Z,66.95
2019-03-31T00:56:01.569Z,67.01
2019-03-31T00:56:32.744Z,66.93
2019-03-31T00:57:03.926Z,67.02
2019-03-31T00:57:35.097Z,67.11
2019-03-31T00:58:06.273Z,67.09
2019-03-31T00:58:37.527Z,67.19
2019-03-31T00:59:08.768Z,67.21
2019-03-31T00:59:39.986Z,67.17
2019-03-31T01:00:13.160Z,67.24
2019-03-31T01:00:46.250Z,67.27
2019-03-31T01:01:35.657Z,67.24
2019-03-31T01:02:00.432Z,67.29
2019-03-31T01:02:33.254Z,67.36
2019-03-31T01:03:04.680Z,67.37
2019-03-31T01:03:37.006Z,67.45
2019-03-31T01:04:08.284Z,67.47
2019-03-31T01:04:39.515Z,67.47
2019-03-31T01:05:10.739Z,67.49
2019-03-31T01:05:42.072Z,67.54
2019-03-31T01:06:13.726Z,67.55
2019-03-31T01:06:45.158Z,67.53
2019-03-31T01:07:16.396Z,67.62
2019-03-31T01:07:47.624Z,67.61
2019-03-31T01:08:18.866Z,67.69
2019-03-31T01:08:50.038Z,67.63
2019-03-31T01:09:24.820Z,67.76
2019-03-31T01:09:56.342Z,67.60
2019-03-31T01:10:27.527Z,67.64
2019-03-31T01:10:58.789Z,67.62
2019-03-31T01:11:29.978Z,67.61
2019-03-31T01:12:01.228Z,67.69
2019-03-31T01:12:32.457Z,67.64
2019-03-31T01:13:04.398Z,67.72
2019-03-31T01:13:35.700Z,67.64
2019-03-31T01:14:08.946Z,67.63
2019-03-31T01:14:40.255Z,67.64
2019-03-31T01:15:13.283Z,67.74
2019-03-31T01:15:44.639Z,67.77
2019-03-31T01:16:15.777Z,67.83
2019-03-31T01:16:47.007Z,67.80
2019-03-31T01:17:18.939Z,67.85
2019-03-31T01:17:50.467Z,67.78
2019-03-31T01:18:21.617Z,67.82
2019-03-31T01:18:52.819Z,67.80
2019-03-31T01:19:24.203Z,67.77
2019-03-31T01:19:56.427Z,67.75
2019-03-31T01:20:27.566Z,67.78
2019-03-31T01:20:58.781Z,67.72
2019-03-31T01:21:30.953Z,67.56
2019-03-31T01:22:02.157Z,67.59
2019-03-31T01:22:33.307Z,67.60
2019-03-31T01:23:04.904Z,67.63
2019-03-31T01:23:36.053Z,67.62
2019-03-31T01:24:07.261Z,67.69
2019-03-31T01:24:38.401Z,67.65
2019-03-31T01:25:09.719Z,67.69
2019-03-31T01:25:41.879Z,67.66
2019-03-31T01:26:14.936Z,67.64
2019-03-31T01:26:46.101Z,67.71
2019-03-31T01:27:17.443Z,67.73
2019-03-31T01:27:48.689Z,67.75
2019-03-31T01:28:19.913Z,67.78
2019-03-31T01:28:51.133Z,67.71
2019-03-31T01:29:22.354Z,67.80
2019-03-31T01:29:53.619Z,67.83
2019-03-31T01:30:25.249Z,67.79
2019-03-31T01:30:56.500Z,67.76
2019-03-31T01:31:28.655Z,67.91
2019-03-31T01:32:00.126Z,67.84
2019-03-31T01:32:31.280Z,68.05
2019-03-31T01:33:02.582Z,67.78
2019-03-31T01:33:33.757Z,67.81
2019-03-31T01:34:05.070Z,67.89
2019-03-31T01:34:36.280Z,67.86
2019-03-31T01:35:07.805Z,67.86
2019-03-31T01:35:38.950Z,67.84
2019-03-31T01:36:10.276Z,67.88
2019-03-31T01:36:41.439Z,67.93
2019-03-31T01:37:13.135Z,68.00
2019-03-31T01:37:44.287Z,67.89
2019-03-31T01:38:15.481Z,67.88
2019-03-31T01:38:49.679Z,67.80
2019-03-31T01:39:23.789Z,67.86
2019-03-31T01:39:55.020Z,67.81
2019-03-31T01:40:26.165Z,67.73
2019-03-31T01:40:57.371Z,67.75
2019-03-31T01:41:28.568Z,67.75
2019-03-31T01:41:59.722Z,67.47
2019-03-31T01:42:32.776Z,67.43
2019-03-31T01:43:03.970Z,67.49
2019-03-31T01:43:35.129Z,67.39
2019-03-31T01:44:06.310Z,67.40
2019-03-31T01:44:37.473Z,67.36
2019-03-31T01:45:08.683Z,67.45
2019-03-31T01:45:39.837Z,67.51
2019-03-31T01:46:12.445Z,67.53
2019-03-31T01:46:43.587Z,67.44
2019-03-31T01:47:16.676Z,67.62
2019-03-31T01:47:47.837Z,67.69
2019-03-31T01:48:19.033Z,67.74
2019-03-31T01:48:50.277Z,67.89
2019-03-31T01:49:21.473Z,67.96
2019-03-31T01:49:52.723Z,67.97
2019-03-31T01:50:24.221Z,67.99
2019-03-31T01:50:55.411Z,68.17
2019-03-31T01:51:26.617Z,68.26
2019-03-31T01:51:57.865Z,68.22
2019-03-31T01:52:29.067Z,68.33
2019-03-31T01:53:00.222Z,68.39
2019-03-31T01:53:31.438Z,68.48
2019-03-31T01:54:02.877Z,68.47
2019-03-31T01:54:34.088Z,68.50
2019-03-31T01:55:05.327Z,68.56
2019-03-31T01:55:36.530Z,68.58
2019-03-31T01:56:07.684Z,68.69
2019-03-31T01:56:38.897Z,68.67
2019-03-31T01:57:10.068Z,68.71
2019-03-31T01:57:41.222Z,68.73
2019-03-31T01:58:12.400Z,68.71
2019-03-31T01:58:43.629Z,68.70
2019-03-31T01:59:14.872Z,68.77
2019-03-31T01:59:46.104Z,68.91
2019-03-31T02:00:35.496Z,68.91
2019-03-31T02:01:17.360Z,68.70
2019-03-31T02:01:48.600Z,68.76
2019-03-31T02:02:27.191Z,68.54
2019-03-31T02:02:58.346Z,68.95
2019-03-31T02:03:29.541Z,68.95
2019-03-31T02:04:00.697Z,68.87
2019-03-31T02:04:31.915Z,68.87
2019-03-31T02:05:06.017Z,68.78
2019-03-31T02:05:38.179Z,68.82
2019-03-31T02:06:09.365Z,68.87
2019-03-31T02:06:40.533Z,68.81
2019-03-31T02:07:11.703Z,68.81
2019-03-31T02:07:42.875Z,68.84
2019-03-31T02:08:14.081Z,68.88
2019-03-31T02:08:45.319Z,68.98
2019-03-31T02:09:16.498Z,68.93
2019-03-31T02:09:47.681Z,68.97
2019-03-31T02:10:18.851Z,68.98
2019-03-31T02:10:50.131Z,68.75
2019-03-31T02:11:21.330Z,68.92
2019-03-31T02:11:52.486Z,68.90
2019-03-31T02:12:23.653Z,68.94
2019-03-31T02:12:54.885Z,68.88
2019-03-31T02:13:26.037Z,68.89
2019-03-31T02:13:57.233Z,68.87
2019-03-31T02:14:28.375Z,69.00
2019-03-31T02:14:59.575Z,68.84
2019-03-31T02:15:30.735Z,68.83
2019-03-31T02:16:01.938Z,68.71
2019-03-31T02:16:33.111Z,68.84
2019-03-31T02:17:04.312Z,68.79
2019-03-31T02:17:35.493Z,68.78
2019-03-31T02:18:07.235Z,68.77
2019-03-31T02:18:38.492Z,68.76
2019-03-31T02:19:09.751Z,68.72
2019-03-31T02:19:40.989Z,68.67
2019-03-31T02:20:12.214Z,68.66
2019-03-31T02:20:43.443Z,68.67
2019-03-31T02:21:14.656Z,68.67
2019-03-31T02:21:45.926Z,68.70
2019-03-31T02:22:17.158Z,68.80
2019-03-31T02:22:49.399Z,68.80
2019-03-31T02:23:20.561Z,68.64
2019-03-31T02:23:51.764Z,68.60
2019-03-31T02:24:22.902Z,68.61
2019-03-31T02:24:54.123Z,68.57
2019-03-31T02:25:25.352Z,68.53
2019-03-31T02:25:56.575Z,68.51
2019-03-31T02:26:27.981Z,68.49
2019-03-31T02:26:59.590Z,68.47
2019-03-31T02:27:30.781Z,68.43
2019-03-31T02:28:01.999Z,68.40
2019-03-31T02:28:33.168Z,68.41
2019-03-31T02:29:04.389Z,68.50
2019-03-31T02:29:35.545Z,68.50
2019-03-31T02:30:06.851Z,68.61
2019-03-31T02:30:38.043Z,68.61
2019-03-31T02:31:09.296Z,68.48
2019-03-31T02:31:40.448Z,68.49
2019-03-31T02:32:23.222Z,68.50
2019-03-31T02:32:44.945Z,68.38
2019-03-31T02:33:16.196Z,68.54
2019-03-31T02:33:48.429Z,68.65
2019-03-31T02:34:19.747Z,68.71
2019-03-31T02:34:51.005Z,69.00
2019-03-31T02:35:22.254Z,68.87
2019-03-31T02:35:53.493Z,68.87
2019-03-31T02:36:25.033Z,69.14
2019-03-31T02:36:56.264Z,68.87
2019-03-31T02:37:27.523Z,68.94
2019-03-31T02:38:00.688Z,68.99
2019-03-31T02:38:31.833Z,69.01
2019-03-31T02:39:03.932Z,69.04
2019-03-31T02:39:35.297Z,69.12
2019-03-31T02:40:06.472Z,69.05
2019-03-31T02:40:37.656Z,69.11
2019-03-31T02:41:08.796Z,69.07
2019-03-31T02:41:39.953Z,68.87
2019-03-31T02:42:11.125Z,69.07
2019-03-31T02:42:42.310Z,69.06
2019-03-31T02:43:13.482Z,69.06
2019-03-31T02:43:44.674Z,69.09
2019-03-31T02:44:15.842Z,69.07
2019-03-31T02:44:47.026Z,69.05
2019-03-31T02:45:18.191Z,68.93
2019-03-31T02:45:49.401Z,69.01
2019-03-31T02:46:20.575Z,69.05
2019-03-31T02:46:51.757Z,69.01
2019-03-31T02:47:22.935Z,69.04
2019-03-31T02:47:54.134Z,69.04
2019-03-31T02:48:25.417Z,69.00
2019-03-31T02:48:56.620Z,69.10
2019-03-31T02:49:28.916Z,69.10
2019-03-31T02:50:00.602Z,68.92
2019-03-31T02:50:47.925Z,68.92
2019-03-31T02:51:19.111Z,69.01
2019-03-31T02:51:50.296Z,69.09
2019-03-31T02:52:21.472Z,69.09
2019-03-31T02:52:52.648Z,68.89
2019-03-31T02:53:23.875Z,68.85
2019-03-31T02:53:55.025Z,68.83
2019-03-31T02:54:26.216Z,68.77
2019-03-31T02:54:57.368Z,68.78
2019-03-31T02:55:28.583Z,68.76
2019-03-31T02:55:59.744Z,68.75
2019-03-31T02:56:30.941Z,68.72
2019-03-31T02:57:02.784Z,68.87
2019-03-31T02:57:33.991Z,68.87
2019-03-31T02:58:05.179Z,68.71
2019-03-31T02:58:36.396Z,68.71
2019-03-31T02:59:07.811Z,68.71
2019-03-31T02:59:39.153Z,68.70
2019-03-31T03:00:10.375Z,68.70
2019-03-31T03:00:41.698Z,68.68
2019-03-31T03:01:13.126Z,68.64
2019-03-31T03:01:45.885Z,68.67
2019-03-31T03:02:17.103Z,68.70
2019-03-31T03:02:48.352Z,68.80
2019-03-31T03:03:19.593Z,68.80
2019-03-31T03:03:50.850Z,68.67
2019-03-31T03:04:22.078Z,68.70
2019-03-31T03:04:53.314Z,68.64
2019-03-31T03:05:24.791Z,68.64
2019-03-31T03:05:56.027Z,68.70
2019-03-31T03:06:27.259Z,68.67
2019-03-31T03:06:59.303Z,68.67
2019-03-31T03:07:30.828Z,68.81
2019-03-31T03:08:02.063Z,68.62
2019-03-31T03:08:33.357Z,68.56
2019-03-31T03:09:05.242Z,68.53
2019-03-31T03:09:36.470Z,68.39
2019-03-31T03:10:07.655Z,68.46
2019-03-31T03:10:39.909Z,68.42
2019-03-31T03:11:12.159Z,68.35
2019-03-31T03:11:43.355Z,68.32
2019-03-31T03:12:14.497Z,68.20
2019-03-31T03:12:45.708Z,68.29
2019-03-31T03:13:16.864Z,68.23
2019-03-31T03:13:48.057Z,68.21
2019-03-31T03:14:19.238Z,68.19
2019-03-31T03:14:50.566Z,68.19
2019-03-31T03:15:28.458Z,68.15
2019-03-31T03:16:13.968Z,68.11
2019-03-31T03:16:45.185Z,68.07
2019-03-31T03:17:16.404Z,67.85
2019-03-31T03:17:47.673Z,68.02
2019-03-31T03:18:18.852Z,68.11
2019-03-31T03:18:50.052Z,68.25
2019-03-31T03:19:22.242Z,67.99
2019-03-31T03:19:53.487Z,67.98
2019-03-31T03:20:25.018Z,68.09
2019-03-31T03:20:56.279Z,68.18
2019-03-31T03:21:27.479Z,68.18
2019-03-31T03:21:58.762Z,68.09
2019-03-31T03:22:29.966Z,68.09
2019-03-31T03:23:01.102Z,67.99
2019-03-31T03:23:32.322Z,68.05
2019-03-31T03:24:03.517Z,68.04
2019-03-31T03:24:34.805Z,68.04
2019-03-31T03:25:05.958Z,67.93
2019-03-31T03:25:54.527Z,67.75
2019-03-31T03:26:10.208Z,67.84
2019-03-31T03:26:41.557Z,67.82
2019-03-31T03:27:12.700Z,67.82
2019-03-31T03:27:43.922Z,67.81
2019-03-31T03:28:15.080Z,67.78
2019-03-31T03:28:46.280Z,67.77
2019-03-31T03:29:17.461Z,67.67
2019-03-31T03:29:48.642Z,67.69
2019-03-31T03:30:20.984Z,67.75
2019-03-31T03:30:52.365Z,67.69
2019-03-31T03:31:23.682Z,67.81
2019-03-31T03:31:55.006Z,67.66
2019-03-31T03:32:26.273Z,67.66
2019-03-31T03:33:14.922Z,67.78
2019-03-31T03:33:30.545Z,67.77
2019-03-31T03:34:01.799Z,67.79
2019-03-31T03:34:33.076Z,67.71
2019-03-31T03:35:04.292Z,67.69
2019-03-31T03:35:35.454Z,67.69
2019-03-31T03:36:06.642Z,67.68
2019-03-31T03:36:37.809Z,67.73
2019-03-31T03:37:08.979Z,67.79
2019-03-31T03:37:40.163Z,67.75
2019-03-31T03:38:11.344Z,67.71
2019-03-31T03:38:42.536Z,67.84
2019-03-31T03:39:13.714Z,67.75
2019-03-31T03:39:44.893Z,68.02
2019-03-31T03:40:16.065Z,67.90
2019-03-31T03:40:47.262Z,67.86
2019-03-31T03:41:18.410Z,67.83
2019-03-31T03:41:49.707Z,67.73
2019-03-31T03:42:20.895Z,67.94
2019-03-31T03:42:52.095Z,67.82
2019-03-31T03:43:23.234Z,67.91
2019-03-31T03:43:57.083Z,67.95
2019-03-31T03:44:27.518Z,67.85
2019-03-31T03:44:58.713Z,67.84
2019-03-31T03:45:29.995Z,67.84
2019-03-31T03:46:01.176Z,67.83
2019-03-31T03:46:32.435Z,67.86
2019-03-31T03:47:03.712Z,67.84
2019-03-31T03:47:34.902Z,67.78
2019-03-31T03:48:06.072Z,67.79
2019-03-31T03:48:37.257Z,67.82
2019-03-31T03:49:08.475Z,67.86
2019-03-31T03:49:39.716Z,67.82
2019-03-31T03:50:10.875Z,67.75
2019-03-31T03:50:42.089Z,67.85
2019-03-31T03:51:13.241Z,67.87
2019-03-31T03:51:44.447Z,67.81
2019-03-31T03:52:15.604Z,67.81
2019-03-31T03:52:46.836Z,67.89
2019-03-31T03:53:17.991Z,67.96
2019-03-31T03:53:49.198Z,68.12
2019-03-31T03:54:21.327Z,68.13
2019-03-31T03:54:52.678Z,68.25
2019-03-31T03:55:23.927Z,68.29
2019-03-31T03:55:55.429Z,68.30
2019-03-31T03:56:29.097Z,68.24
2019-03-31T03:56:59.770Z,68.37
2019-03-31T03:57:31.013Z,68.52
2019-03-31T03:58:02.220Z,68.48
2019-03-31T03:58:33.367Z,68.42
2019-03-31T03:59:04.566Z,68.39
2019-03-31T03:59:35.744Z,68.32
2019-03-31T04:00:07.054Z,68.31
2019-03-31T04:00:38.209Z,68.36
2019-03-31T04:01:11.321Z,68.42
2019-03-31T04:01:42.481Z,68.47
2019-03-31T04:02:13.709Z,68.53
2019-03-31T04:02:44.863Z,68.37
2019-03-31T04:03:30.042Z,68.39
2019-03-31T04:03:49.124Z,68.50
2019-03-31T04:04:20.311Z,68.54
2019-03-31T04:04:51.491Z,68.57
2019-03-31T04:05:22.736Z,68.40
2019-03-31T04:05:53.967Z,68.56
2019-03-31T04:06:25.446Z,68.61
2019-03-31T04:06:56.696Z,68.58
2019-03-31T04:07:28.012Z,68.73
2019-03-31T04:07:59.346Z,68.70
2019-03-31T04:08:30.580Z,68.74
2019-03-31T04:09:01.804Z,68.75
2019-03-31T04:09:34.116Z,68.74
2019-03-31T04:10:27.414Z,69.00
2019-03-31T04:11:12.128Z,69.00
2019-03-31T04:11:43.435Z,68.85
2019-03-31T04:12:14.741Z,68.98
2019-03-31T04:12:46.012Z,68.98
2019-03-31T04:13:17.255Z,68.95
2019-03-31T04:13:48.436Z,68.74
2019-03-31T04:14:19.642Z,69.00
2019-03-31T04:14:50.817Z,68.83
2019-03-31T04:15:22.051Z,68.83
2019-03-31T04:15:53.226Z,69.05
2019-03-31T04:16:24.432Z,69.06
2019-03-31T04:16:55.582Z,69.01
2019-03-31T04:17:26.794Z,68.99
2019-03-31T04:17:57.931Z,69.11
2019-03-31T04:18:29.129Z,69.16
2019-03-31T04:19:00.318Z,69.25
2019-03-31T04:19:31.498Z,69.25
2019-03-31T04:20:03.875Z,69.19
2019-03-31T04:20:39.107Z,69.14
2019-03-31T04:21:08.140Z,69.08
2019-03-31T04:21:39.323Z,69.13
2019-03-31T04:22:10.486Z,69.20
2019-03-31T04:22:41.658Z,69.10
2019-03-31T04:23:12.842Z,69.07
2019-03-31T04:23:44.024Z,69.11
2019-03-31T04:24:16.217Z,69.10
2019-03-31T04:24:47.483Z,69.04
2019-03-31T04:25:18.672Z,69.12
2019-03-31T04:25:49.855Z,69.33
2019-03-31T04:26:21.035Z,69.29
2019-03-31T04:26:52.253Z,69.18
2019-03-31T04:27:23.452Z,69.16
2019-03-31T04:27:54.624Z,69.11
2019-03-31T04:28:25.798Z,69.25
2019-03-31T04:28:56.987Z,69.25
2019-03-31T04:29:28.330Z,69.30
2019-03-31T04:29:59.529Z,69.26
2019-03-31T04:30:30.726Z,69.28
2019-03-31T04:31:01.906Z,69.34
2019-03-31T04:31:33.088Z,69.37
2019-03-31T04:32:04.371Z,69.37
2019-03-31T04:32:38.753Z,69.30
2019-03-31T04:33:08.774Z,69.23
2019-03-31T04:33:50.423Z,69.19
2019-03-31T04:34:13.067Z,68.97
2019-03-31T04:34:44.266Z,68.97
2019-03-31T04:35:15.465Z,69.13
2019-03-31T04:35:46.663Z,69.04
2019-03-31T04:36:17.868Z,69.01
2019-03-31T04:36:49.004Z,69.02
2019-03-31T04:37:20.228Z,68.94
2019-03-31T04:37:51.386Z,68.88
2019-03-31T04:38:22.593Z,68.86
2019-03-31T04:38:53.751Z,68.90
2019-03-31T04:39:25.179Z,68.46
2019-03-31T04:39:56.419Z,68.46
2019-03-31T04:40:27.842Z,68.51
2019-03-31T04:40:59.089Z,68.45
2019-03-31T04:41:30.331Z,68.41
2019-03-31T04:42:01.554Z,68.40
2019-03-31T04:42:32.785Z,68.68
2019-03-31T04:43:04.109Z,68.49
2019-03-31T04:43:35.342Z,68.50
2019-03-31T04:44:06.570Z,68.21
2019-03-31T04:44:39.753Z,68.30
2019-03-31T04:45:10.922Z,68.30
2019-03-31T04:45:42.125Z,68.54
2019-03-31T04:46:13.266Z,68.45
2019-03-31T04:46:45.454Z,68.33
2019-03-31T04:47:16.606Z,68.37
2019-03-31T04:47:47.813Z,68.24
2019-03-31T04:48:18.963Z,68.24
2019-03-31T04:48:50.165Z,68.18
2019-03-31T04:49:21.335Z,68.20
2019-03-31T04:49:52.537Z,68.28
2019-03-31T04:50:23.718Z,68.18
2019-03-31T04:50:56.053Z,68.33
2019-03-31T04:51:27.198Z,68.35
2019-03-31T04:51:58.579Z,68.31
2019-03-31T04:52:29.720Z,68.25
2019-03-31T04:53:00.922Z,68.64
2019-03-31T04:53:32.077Z,68.60
2019-03-31T04:54:03.394Z,68.62
2019-03-31T04:54:34.532Z,68.42
2019-03-31T04:55:05.742Z,68.44
2019-03-31T04:55:36.898Z,68.48
2019-03-31T04:56:08.144Z,68.17
2019-03-31T04:56:39.369Z,68.08
2019-03-31T04:57:10.647Z,68.03
2019-03-31T04:57:43.036Z,67.95
2019-03-31T04:58:14.290Z,67.88
2019-03-31T04:58:45.512Z,67.97
2019-03-31T04:59:16.833Z,67.97
2019-03-31T04:59:50.898Z,68.06
2019-03-31T05:00:22.138Z,68.20
2019-03-31T05:00:53.360Z,68.39
2019-03-31T05:01:24.500Z,68.51
2019-03-31T05:01:55.698Z,68.48
2019-03-31T05:02:27.437Z,68.50
2019-03-31T05:02:58.763Z,68.59
2019-03-31T05:03:29.917Z,68.60
2019-03-31T05:04:05.025Z,68.67
2019-03-31T05:04:34.180Z,68.80
2019-03-31T05:05:05.376Z,68.99
2019-03-31T05:05:36.570Z,68.95
2019-03-31T05:06:07.828Z,69.06
2019-03-31T05:06:38.965Z,69.03
2019-03-31T05:07:10.181Z,69.09
2019-03-31T05:07:41.331Z,69.49
2019-03-31T05:08:12.532Z,69.43
2019-03-31T05:08:43.709Z,69.46
2019-03-31T05:09:14.914Z,69.53
2019-03-31T05:09:46.047Z,69.73
2019-03-31T05:10:17.229Z,69.49
2019-03-31T05:10:48.405Z,69.43
2019-03-31T05:11:19.609Z,69.59
2019-03-31T05:11:50.802Z,69.70
2019-03-31T05:12:21.968Z,70.10
2019-03-31T05:12:53.152Z,70.08
2019-03-31T05:13:24.321Z,70.22
2019-03-31T05:13:57.404Z,70.41
2019-03-31T05:14:28.573Z,70.55
2019-03-31T05:14:59.742Z,70.75
2019-03-31T05:15:30.932Z,70.91
2019-03-31T05:16:02.315Z,71.05
2019-03-31T05:16:33.625Z,71.13
2019-03-31T05:17:04.806Z,71.49
2019-03-31T05:17:36.113Z,71.44
2019-03-31T05:18:07.358Z,71.53
2019-03-31T05:18:38.561Z,71.73
2019-03-31T05:19:09.744Z,71.65
2019-03-31T05:19:40.913Z,71.87
2019-03-31T05:20:12.108Z,72.14
2019-03-31T05:20:43.270Z,72.20
2019-03-31T05:21:14.450Z,72.39
2019-03-31T05:21:45.672Z,72.39
2019-03-31T05:22:16.906Z,72.70
2019-03-31T05:22:48.100Z,72.43
2019-03-31T05:23:19.362Z,72.52
2019-03-31T05:23:50.552Z,72.59
2019-03-31T05:24:21.736Z,72.65
2019-03-31T05:24:52.914Z,72.84
2019-03-31T05:25:24.067Z,72.86
2019-03-31T05:25:55.606Z,72.88
2019-03-31T05:26:26.783Z,72.97
2019-03-31T05:26:57.954Z,73.04
2019-03-31T05:27:29.115Z,73.18
2019-03-31T05:28:00.311Z,73.39
2019-03-31T05:28:31.819Z,73.38
2019-03-31T05:29:03.019Z,73.54
2019-03-31T05:29:34.207Z,73.60
2019-03-31T05:30:05.393Z,73.52
2019-03-31T05:30:36.567Z,73.52
2019-03-31T05:31:07.762Z,73.63
2019-03-31T05:31:40.815Z,73.73
2019-03-31T05:32:12.031Z,73.73
2019-03-31T05:32:43.176Z,74.00
2019-03-31T05:33:15.201Z,73.83
2019-03-31T05:33:46.356Z,73.81
2019-03-31T05:34:19.753Z,74.10
2019-03-31T05:34:51.028Z,74.06
2019-03-31T05:35:22.216Z,74.15
2019-03-31T05:35:53.368Z,74.06
2019-03-31T05:36:24.866Z,73.99
2019-03-31T05:36:56.029Z,74.08
2019-03-31T05:37:27.228Z,74.06
2019-03-31T05:37:58.380Z,74.07
2019-03-31T05:38:29.604Z,74.30
2019-03-31T05:39:00.729Z,74.30
2019-03-31T05:39:31.940Z,74.06
2019-03-31T05:40:03.812Z,74.29
2019-03-31T05:40:35.988Z,74.29
2019-03-31T05:41:07.170Z,74.12
2019-03-31T05:41:38.422Z,74.05
2019-03-31T05:42:09.582Z,74.19
2019-03-31T05:42:40.778Z,74.19
2019-03-31T05:43:11.964Z,74.15
2019-03-31T05:43:43.180Z,74.15
2019-03-31T05:44:14.328Z,74.19
2019-03-31T05:44:45.545Z,74.23
2019-03-31T05:45:16.712Z,74.10
2019-03-31T05:45:47.932Z,74.10
2019-03-31T05:46:19.108Z,74.10
2019-03-31T05:46:50.354Z,73.83
2019-03-31T05:47:22.616Z,73.83
2019-03-31T05:47:53.855Z,73.87
2019-03-31T05:48:25.452Z,73.86
2019-03-31T05:48:56.676Z,73.67
2019-03-31T05:49:27.975Z,73.60
2019-03-31T05:49:59.193Z,73.52
2019-03-31T05:50:30.439Z,73.58
2019-03-31T05:51:01.693Z,73.55
2019-03-31T05:51:32.939Z,73.58
2019-03-31T05:52:04.104Z,73.51
2019-03-31T05:52:35.326Z,73.48
2019-03-31T05:53:06.485Z,73.38
2019-03-31T05:53:37.698Z,73.40
2019-03-31T05:54:08.857Z,73.60
2019-03-31T05:54:40.071Z,73.42
2019-03-31T05:55:11.221Z,73.49
2019-03-31T05:55:42.442Z,73.23
2019-03-31T05:56:13.586Z,73.26
2019-03-31T05:56:44.793Z,73.28
2019-03-31T05:57:15.937Z,73.35
2019-03-31T05:57:47.147Z,73.37
2019-03-31T05:58:18.297Z,73.57
2019-03-31T05:58:49.508Z,73.44
2019-03-31T05:59:20.650Z,73.28
2019-03-31T05:59:51.867Z,73.36
2019-03-31T06:00:33.960Z,73.38
2019-03-31T06:01:05.216Z,73.46
2019-03-31T06:01:36.421Z,73.46
2019-03-31T06:02:07.573Z,73.21
2019-03-31T06:02:38.767Z,73.19
2019-03-31T06:03:09.905Z,73.12
2019-03-31T06:03:41.114Z,73.04
2019-03-31T06:04:12.272Z,73.18
2019-03-31T06:04:43.471Z,73.09
2019-03-31T06:05:14.622Z,73.05
2019-03-31T06:05:46.950Z,73.06
2019-03-31T06:06:18.815Z,73.00
2019-03-31T06:06:49.998Z,72.93
2019-03-31T06:07:21.179Z,73.04
2019-03-31T06:07:52.362Z,72.90
2019-03-31T06:08:23.542Z,72.86
2019-03-31T06:08:54.924Z,72.85
2019-03-31T06:09:26.099Z,72.83
2019-03-31T06:09:59.175Z,72.78
2019-03-31T06:10:30.357Z,72.72
2019-03-31T06:11:01.545Z,72.66
2019-03-31T06:11:32.757Z,72.62
2019-03-31T06:12:03.960Z,72.66
2019-03-31T06:12:35.120Z,72.54
2019-03-31T06:13:06.312Z,72.53
2019-03-31T06:13:37.469Z,72.59
2019-03-31T06:14:08.669Z,72.40
2019-03-31T06:14:39.823Z,72.44
2019-03-31T06:15:11.043Z,72.46
2019-03-31T06:15:42.200Z,72.63
2019-03-31T06:16:13.407Z,72.69
2019-03-31T06:16:44.578Z,72.70
2019-03-31T06:17:15.821Z,72.96
2019-03-31T06:17:46.999Z,72.95
2019-03-31T06:18:18.258Z,72.82
2019-03-31T06:18:49.514Z,72.73
2019-03-31T06:19:20.697Z,72.52
2019-03-31T06:19:51.882Z,72.79
2019-03-31T06:20:23.059Z,71.61
2019-03-31T06:20:54.249Z,71.86
2019-03-31T06:21:28.989Z,71.84
2019-03-31T06:21:58.707Z,71.98
2019-03-31T06:22:29.887Z,71.77
2019-03-31T06:23:01.070Z,71.80
2019-03-31T06:23:32.240Z,71.75
2019-03-31T06:24:03.433Z,71.95
2019-03-31T06:24:34.644Z,71.61
2019-03-31T06:25:05.940Z,71.73
2019-03-31T06:25:37.124Z,71.61
2019-03-31T06:26:08.318Z,71.75
2019-03-31T06:26:39.520Z,71.83
2019-03-31T06:27:10.725Z,71.90
2019-03-31T06:27:41.920Z,71.90
2019-03-31T06:28:13.094Z,71.87
2019-03-31T06:28:44.266Z,71.69
2019-03-31T06:29:15.446Z,71.44
2019-03-31T06:29:46.619Z,71.52
2019-03-31T06:30:17.798Z,71.47
2019-03-31T06:30:48.978Z,71.64
2019-03-31T06:31:20.144Z,71.77
2019-03-31T06:31:51.344Z,71.49
2019-03-31T06:32:22.539Z,71.63
2019-03-31T06:32:55.431Z,71.66
2019-03-31T06:33:27.828Z,71.76
2019-03-31T06:33:59.027Z,71.77
2019-03-31T06:34:30.227Z,71.99
2019-03-31T06:35:01.507Z,71.82
2019-03-31T06:35:32.690Z,71.87
2019-03-31T06:36:04.876Z,71.86
2019-03-31T06:36:36.059Z,71.77
2019-03-31T06:37:07.264Z,71.88
2019-03-31T06:37:38.408Z,71.89
2019-03-31T06:38:09.625Z,71.64
2019-03-31T06:38:40.797Z,71.61
2019-03-31T06:39:12.047Z,71.61
2019-03-31T06:39:43.253Z,71.59
2019-03-31T06:40:14.472Z,71.48
2019-03-31T06:40:47.517Z,71.27
2019-03-31T06:41:18.696Z,71.31
2019-03-31T06:41:50.863Z,71.36
2019-03-31T06:42:22.073Z,71.61
2019-03-31T06:42:53.221Z,71.61
2019-03-31T06:43:24.437Z,71.31
2019-03-31T06:43:55.587Z,71.21
2019-03-31T06:44:26.805Z,70.72
2019-03-31T06:44:57.947Z,70.63
2019-03-31T06:45:29.156Z,70.90
2019-03-31T06:46:00.411Z,70.99